createdAt,value
2018-05-09T00:00:28.544Z,1009.29
2018-05-09T00:01:34.083Z,1009.31
2018-05-09T00:02:39.622Z,1009.24
2018-05-09T00:03:45.169Z,1009.27
2018-05-09T00:04:50.703Z,1009.26
2018-05-09T00:05:56.247Z,1009.25
2018-05-09T00:07:01.784Z,1009.22
2018-05-09T00:08:07.327Z,1009.22
2018-05-09T00:09:12.870Z,1009.23
2018-05-09T00:10:18.417Z,1009.23
2018-05-09T00:11:23.956Z,1009.25
2018-05-09T00:12:29.490Z,1009.23
2018-05-09T00:13:35.038Z,1009.26
2018-05-09T00:14:40.573Z,1009.29
2018-05-09T00:15:46.112Z,1009.28
2018-05-09T00:16:51.656Z,1009.23
2018-05-09T00:17:57.201Z,1009.24
2018-05-09T00:19:02.736Z,1009.22
2018-05-09T00:20:08.277Z,1009.22
2018-05-09T00:21:13.817Z,1009.24
2018-05-09T00:22:19.366Z,1009.19
2018-05-09T00:23:24.909Z,1009.18
2018-05-09T00:24:30.445Z,1009.22
2018-05-09T00:25:35.985Z,1009.21
2018-05-09T00:26:41.522Z,1009.22
2018-05-09T00:27:47.066Z,1009.20
2018-05-09T00:28:52.601Z,1009.22
2018-05-09T00:29:58.145Z,1009.22
2018-05-09T00:31:03.689Z,1009.22
2018-05-09T00:32:09.226Z,1009.18
2018-05-09T00:33:14.764Z,1009.20
2018-05-09T00:34:20.307Z,1009.22
2018-05-09T00:35:25.847Z,1009.21
2018-05-09T00:36:31.388Z,1009.18
2018-05-09T00:37:36.935Z,1009.14
2018-05-09T00:38:42.475Z,1009.20
2018-05-09T00:39:48.010Z,1009.16
2018-05-09T00:40:53.557Z,1009.14
2018-05-09T00:41:59.096Z,1009.14
2018-05-09T00:43:04.639Z,1009.14
2018-05-09T00:44:10.177Z,1009.16
2018-05-09T00:45:15.726Z,1009.10
2018-05-09T00:46:21.256Z,1009.07
2018-05-09T00:47:26.799Z,1009.09
2018-05-09T00:48:32.336Z,1009.09
2018-05-09T00:49:37.876Z,1009.09
2018-05-09T00:50:43.418Z,1009.08
2018-05-09T00:51:48.959Z,1009.08
2018-05-09T00:52:54.504Z,1009.05
2018-05-09T00:54:00.043Z,1009.06
2018-05-09T00:55:05.585Z,1009.08
2018-05-09T00:56:11.124Z,1009.02
2018-05-09T00:57:16.668Z,1009.07
2018-05-09T00:58:22.210Z,1009.03
2018-05-09T00:59:27.746Z,1009.05
2018-05-09T01:00:33.284Z,1009.05
2018-05-09T01:01:38.830Z,1009.03
2018-05-09T01:02:44.368Z,1009.04
2018-05-09T01:03:49.913Z,1009.04
2018-05-09T01:04:55.530Z,1009.06
2018-05-09T01:06:00.993Z,1009.05
2018-05-09T01:07:06.536Z,1009.05
2018-05-09T01:08:12.070Z,1009.02
2018-05-09T01:09:17.613Z,1008.98
2018-05-09T01:10:23.155Z,1009.01
2018-05-09T01:11:28.694Z,1009.01
2018-05-09T01:12:34.230Z,1009.00
2018-05-09T01:13:39.774Z,1009.01
2018-05-09T01:14:45.312Z,1009.02
2018-05-09T01:15:50.851Z,1009.01
2018-05-09T01:16:56.395Z,1008.98
2018-05-09T01:18:01.937Z,1009.00
2018-05-09T01:19:07.476Z,1008.99
2018-05-09T01:20:13.018Z,1008.98
2018-05-09T01:21:18.557Z,1009.02
2018-05-09T01:22:24.095Z,1009.02
2018-05-09T01:23:29.643Z,1008.99
2018-05-09T01:24:35.181Z,1009.01
2018-05-09T01:25:40.721Z,1009.00
2018-05-09T01:26:46.263Z,1009.01
2018-05-09T01:27:51.799Z,1009.01
2018-05-09T01:28:57.337Z,1009.02
2018-05-09T01:30:02.879Z,1009.05
2018-05-09T01:31:08.423Z,1009.04
2018-05-09T01:32:13.959Z,1009.04
2018-05-09T01:33:19.507Z,1009.03
2018-05-09T01:34:25.039Z,1009.00
2018-05-09T01:35:30.581Z,1009.04
2018-05-09T01:36:36.121Z,1009.02
2018-05-09T01:37:41.666Z,1008.97
2018-05-09T01:38:47.205Z,1008.99
2018-05-09T01:39:52.741Z,1008.98
2018-05-09T01:40:58.283Z,1008.99
2018-05-09T01:42:03.822Z,1008.99
2018-05-09T01:43:09.368Z,1009.02
2018-05-09T01:44:14.903Z,1008.99
2018-05-09T01:45:20.447Z,1008.98
2018-05-09T01:46:25.984Z,1008.96
2018-05-09T01:47:31.530Z,1008.92
2018-05-09T01:48:37.073Z,1008.97
2018-05-09T01:49:42.608Z,1008.95
2018-05-09T01:50:48.152Z,1008.97
2018-05-09T01:51:53.685Z,1008.96
2018-05-09T01:52:59.230Z,1008.94
2018-05-09T01:54:04.775Z,1008.94
2018-05-09T01:55:10.320Z,1008.92
2018-05-09T01:56:15.849Z,1008.92
2018-05-09T01:57:21.388Z,1008.92
2018-05-09T01:58:26.931Z,1008.93
2018-05-09T01:59:32.470Z,1008.88
2018-05-09T02:00:38.014Z,1008.89
2018-05-09T02:01:43.559Z,1008.90
2018-05-09T02:02:49.099Z,1008.86
2018-05-09T02:03:54.636Z,1008.89
2018-05-09T02:05:00.174Z,1008.91
2018-05-09T02:06:05.791Z,1008.91
2018-05-09T02:07:11.250Z,1008.86
2018-05-09T02:08:16.795Z,1008.88
2018-05-09T02:09:22.344Z,1008.87
2018-05-09T02:10:27.872Z,1008.86
2018-05-09T02:11:33.417Z,1008.86
2018-05-09T02:12:38.952Z,1008.88
2018-05-09T02:13:44.497Z,1008.89
2018-05-09T02:14:50.032Z,1008.85
2018-05-09T02:15:55.571Z,1008.87
2018-05-09T02:17:01.112Z,1008.84
2018-05-09T02:18:06.658Z,1008.83
2018-05-09T02:19:12.201Z,1008.85
2018-05-09T02:20:17.733Z,1008.83
2018-05-09T02:21:23.273Z,1008.85
2018-05-09T02:22:28.819Z,1008.84
2018-05-09T02:23:34.358Z,1008.86
2018-05-09T02:24:39.894Z,1008.80
2018-05-09T02:25:45.435Z,1008.80
2018-05-09T02:26:50.976Z,1008.80
2018-05-09T02:27:56.514Z,1008.80
2018-05-09T02:29:02.058Z,1008.79
2018-05-09T02:30:07.597Z,1008.81
2018-05-09T02:31:13.227Z,1008.77
2018-05-09T02:32:18.683Z,1008.76
2018-05-09T02:33:24.227Z,1008.77
2018-05-09T02:34:29.763Z,1008.73
2018-05-09T02:35:35.304Z,1008.73
2018-05-09T02:36:40.838Z,1008.74
2018-05-09T02:37:46.374Z,1008.72
2018-05-09T02:38:51.918Z,1008.75
2018-05-09T02:39:57.456Z,1008.72
2018-05-09T02:41:03.004Z,1008.71
2018-05-09T02:42:08.538Z,1008.71
2018-05-09T02:43:14.081Z,1008.72
2018-05-09T02:44:19.619Z,1008.73
2018-05-09T02:45:25.160Z,1008.68
2018-05-09T02:46:30.697Z,1008.70
2018-05-09T02:47:36.235Z,1008.69
2018-05-09T02:48:41.785Z,1008.69
2018-05-09T02:49:47.316Z,1008.68
2018-05-09T02:50:52.859Z,1008.70
2018-05-09T02:51:58.403Z,1008.66
2018-05-09T02:53:03.935Z,1008.66
2018-05-09T02:54:09.486Z,1008.68
2018-05-09T02:55:15.022Z,1008.68
2018-05-09T02:56:20.555Z,1008.66
2018-05-09T02:57:26.103Z,1008.65
2018-05-09T02:58:31.637Z,1008.65
2018-05-09T02:59:37.182Z,1008.59
2018-05-09T03:00:42.721Z,1008.66
2018-05-09T03:01:48.259Z,1008.66
2018-05-09T03:02:53.802Z,1008.68
2018-05-09T03:03:59.337Z,1008.68
2018-05-09T03:05:04.876Z,1008.68
2018-05-09T03:06:10.414Z,1008.71
2018-05-09T03:07:15.961Z,1008.76
2018-05-09T03:08:21.503Z,1008.75
2018-05-09T03:09:27.040Z,1008.74
2018-05-09T03:10:32.580Z,1008.74
2018-05-09T03:11:38.118Z,1008.72
2018-05-09T03:12:43.661Z,1008.67
2018-05-09T03:13:49.198Z,1008.74
2018-05-09T03:14:54.738Z,1008.71
2018-05-09T03:16:00.277Z,1008.72
2018-05-09T03:17:05.818Z,1008.69
2018-05-09T03:18:11.358Z,1008.71
2018-05-09T03:19:16.894Z,1008.74
2018-05-09T03:20:22.444Z,1008.69
2018-05-09T03:21:27.970Z,1008.69
2018-05-09T03:22:33.512Z,1008.69
2018-05-09T03:23:39.068Z,1008.70
2018-05-09T03:24:44.607Z,1008.72
2018-05-09T03:25:50.139Z,1008.76
2018-05-09T03:26:55.678Z,1008.72
2018-05-09T03:28:01.210Z,1008.73
2018-05-09T03:29:06.755Z,1008.77
2018-05-09T03:30:12.297Z,1008.76
2018-05-09T03:31:17.837Z,1008.71
2018-05-09T03:32:23.374Z,1008.74
2018-05-09T03:33:28.922Z,1008.73
2018-05-09T03:34:34.453Z,1008.68
2018-05-09T03:35:39.995Z,1008.73
2018-05-09T03:36:45.533Z,1008.75
2018-05-09T03:37:51.071Z,1008.74
2018-05-09T03:38:56.616Z,1008.73
2018-05-09T03:40:02.148Z,1008.78
2018-05-09T03:41:07.686Z,1008.81
2018-05-09T03:42:13.237Z,1008.85
2018-05-09T03:43:18.771Z,1008.84
2018-05-09T03:44:24.314Z,1008.79
2018-05-09T03:45:29.853Z,1008.85
2018-05-09T03:46:35.394Z,1008.77
2018-05-09T03:47:40.929Z,1008.83
2018-05-09T03:48:46.470Z,1008.83
2018-05-09T03:49:52.010Z,1008.87
2018-05-09T03:50:57.546Z,1008.83
2018-05-09T03:52:03.089Z,1008.85
2018-05-09T03:53:08.629Z,1008.86
2018-05-09T03:54:14.166Z,1008.85
2018-05-09T03:55:19.707Z,1008.85
2018-05-09T03:56:25.243Z,1008.84
2018-05-09T03:57:30.790Z,1008.86
2018-05-09T03:58:36.328Z,1008.90
2018-05-09T03:59:41.867Z,1008.94
2018-05-09T04:00:47.433Z,1008.90
2018-05-09T04:01:52.950Z,1008.88
2018-05-09T04:02:58.486Z,1008.89
2018-05-09T04:04:04.028Z,1008.88
2018-05-09T04:05:09.568Z,1008.88
2018-05-09T04:06:15.113Z,1008.87
2018-05-09T04:07:20.641Z,1008.85
2018-05-09T04:08:26.188Z,1008.88
2018-05-09T04:09:31.762Z,1008.88
2018-05-09T04:10:37.265Z,1008.82
2018-05-09T04:11:42.803Z,1008.84
2018-05-09T04:12:48.342Z,1008.86
2018-05-09T04:13:53.888Z,1008.84
2018-05-09T04:14:59.424Z,1008.84
2018-05-09T04:16:04.961Z,1008.83
2018-05-09T04:17:10.506Z,1008.84
2018-05-09T04:18:16.048Z,1008.84
2018-05-09T04:19:21.580Z,1008.87
2018-05-09T04:20:27.122Z,1008.82
2018-05-09T04:21:32.668Z,1008.81
2018-05-09T04:22:38.281Z,1008.89
2018-05-09T04:23:43.741Z,1008.88
2018-05-09T04:24:49.281Z,1008.85
2018-05-09T04:25:54.824Z,1008.88
2018-05-09T04:27:00.363Z,1008.85
2018-05-09T04:28:05.923Z,1008.83
2018-05-09T04:29:11.444Z,1008.88
2018-05-09T04:30:16.982Z,1008.87
2018-05-09T04:31:22.525Z,1008.84
2018-05-09T04:32:28.063Z,1008.86
2018-05-09T04:33:33.605Z,1008.90
2018-05-09T04:34:39.144Z,1008.92
2018-05-09T04:35:44.684Z,1008.97
2018-05-09T04:36:50.236Z,1008.93
2018-05-09T04:37:55.769Z,1008.88
2018-05-09T04:39:01.306Z,1008.88
2018-05-09T04:40:06.853Z,1008.90
2018-05-09T04:41:12.397Z,1008.95
2018-05-09T04:42:17.931Z,1008.91
2018-05-09T04:43:23.472Z,1008.93
2018-05-09T04:46:00.611Z,1008.89
2018-05-09T04:47:06.139Z,1008.89
2018-05-09T04:49:04.596Z,1008.89
2018-05-09T04:50:10.100Z,1008.92
2018-05-09T04:52:08.516Z,1008.87
2018-05-09T04:53:14.053Z,1008.90
2018-05-09T04:55:12.497Z,1008.92
2018-05-09T04:56:18.015Z,1008.95
2018-05-09T04:57:23.553Z,1008.96
2018-05-09T04:58:29.091Z,1008.93
2018-05-09T04:59:34.631Z,1008.97
2018-05-09T05:00:40.171Z,1008.92
2018-05-09T05:01:45.710Z,1008.93
2018-05-09T05:02:51.250Z,1008.92
2018-05-09T05:03:56.799Z,1008.89
2018-05-09T05:05:02.337Z,1008.88
2018-05-09T05:06:07.883Z,1008.91
2018-05-09T05:07:13.424Z,1008.94
2018-05-09T05:08:18.967Z,1008.93
2018-05-09T05:09:24.506Z,1008.93
2018-05-09T05:10:30.049Z,1008.92
2018-05-09T05:11:35.591Z,1008.91
2018-05-09T05:12:41.134Z,1008.92
2018-05-09T05:13:46.675Z,1008.92
2018-05-09T05:14:52.221Z,1008.94
2018-05-09T05:15:57.758Z,1008.90
2018-05-09T05:17:03.293Z,1008.91
2018-05-09T05:18:08.835Z,1008.91
2018-05-09T05:19:14.389Z,1008.89
2018-05-09T05:20:19.919Z,1008.92
2018-05-09T05:21:25.466Z,1008.90
2018-05-09T05:22:31.026Z,1008.90
2018-05-09T05:23:36.546Z,1008.91
2018-05-09T05:24:42.088Z,1008.92
2018-05-09T05:25:47.640Z,1008.92
2018-05-09T05:26:53.174Z,1008.92
2018-05-09T05:27:58.713Z,1008.94
2018-05-09T05:29:04.260Z,1008.90
2018-05-09T05:30:09.801Z,1008.89
2018-05-09T05:31:15.343Z,1008.89
2018-05-09T05:32:20.896Z,1008.90
2018-05-09T05:33:26.433Z,1008.88
2018-05-09T05:34:31.971Z,1008.90
2018-05-09T05:35:37.513Z,1008.87
2018-05-09T05:36:43.055Z,1008.91
2018-05-09T05:37:48.601Z,1008.88
2018-05-09T05:38:54.171Z,1008.88
2018-05-09T05:39:59.679Z,1008.84
2018-05-09T05:41:05.221Z,1008.84
2018-05-09T05:42:10.768Z,1008.82
2018-05-09T05:43:16.306Z,1008.84
2018-05-09T05:44:21.850Z,1008.84
2018-05-09T05:45:27.492Z,1008.83
2018-05-09T05:46:32.936Z,1008.81
2018-05-09T05:47:38.475Z,1008.83
2018-05-09T05:48:44.017Z,1008.85
2018-05-09T05:49:49.562Z,1008.83
2018-05-09T05:50:55.103Z,1008.90
2018-05-09T05:52:00.647Z,1008.87
2018-05-09T05:53:06.191Z,1008.91
2018-05-09T05:54:11.737Z,1008.91
2018-05-09T05:55:17.278Z,1008.91
2018-05-09T05:56:22.809Z,1008.91
2018-05-09T05:57:28.357Z,1008.92
2018-05-09T05:58:33.905Z,1008.94
2018-05-09T05:59:39.442Z,1008.95
2018-05-09T06:00:44.984Z,1008.94
2018-05-09T06:01:50.537Z,1008.93
2018-05-09T06:02:56.076Z,1008.88
2018-05-09T06:04:01.617Z,1008.95
2018-05-09T06:05:07.157Z,1008.90
2018-05-09T06:06:13.486Z,1008.88
2018-05-09T06:07:18.242Z,1008.89
2018-05-09T06:08:23.785Z,1008.91
2018-05-09T06:09:29.329Z,1008.91
2018-05-09T06:10:34.876Z,1008.92
2018-05-09T06:11:40.416Z,1008.94
2018-05-09T06:12:45.956Z,1008.90
2018-05-09T06:13:51.505Z,1008.89
2018-05-09T06:14:57.054Z,1008.95
2018-05-09T06:16:02.590Z,1008.94
2018-05-09T06:17:08.183Z,1008.94
2018-05-09T06:18:13.674Z,1008.93
2018-05-09T06:19:19.222Z,1008.97
2018-05-09T06:20:24.761Z,1008.99
2018-05-09T06:21:30.305Z,1009.01
2018-05-09T06:22:35.847Z,1008.99
2018-05-09T06:23:41.484Z,1008.99
2018-05-09T06:24:46.936Z,1008.97
2018-05-09T06:25:52.475Z,1008.97
2018-05-09T06:26:58.019Z,1008.93
2018-05-09T06:28:03.563Z,1008.96
2018-05-09T06:29:09.114Z,1009.01
2018-05-09T06:30:14.649Z,1009.03
2018-05-09T06:31:20.195Z,1009.00
2018-05-09T06:32:25.742Z,1009.03
2018-05-09T06:33:31.279Z,1008.99
2018-05-09T06:34:36.826Z,1009.00
2018-05-09T06:35:42.374Z,1009.05
2018-05-09T06:36:47.914Z,1009.05
2018-05-09T06:37:53.455Z,1009.08
2018-05-09T06:38:58.999Z,1009.08
2018-05-09T06:40:04.541Z,1009.12
2018-05-09T06:41:10.084Z,1009.13
2018-05-09T06:42:15.628Z,1009.19
2018-05-09T06:43:21.176Z,1009.16
2018-05-09T06:44:26.715Z,1009.21
2018-05-09T06:45:32.258Z,1009.19
2018-05-09T06:46:37.805Z,1009.20
2018-05-09T06:47:43.348Z,1009.19
2018-05-09T06:48:48.898Z,1009.21
2018-05-09T06:49:54.452Z,1009.19
2018-05-09T06:50:59.978Z,1009.23
2018-05-09T06:52:05.528Z,1009.22
2018-05-09T06:53:11.073Z,1009.24
2018-05-09T06:54:16.612Z,1009.21
2018-05-09T06:55:22.156Z,1009.27
2018-05-09T06:56:27.701Z,1009.21
2018-05-09T06:57:33.249Z,1009.19
2018-05-09T06:58:38.793Z,1009.18
2018-05-09T06:59:44.332Z,1009.18
2018-05-09T07:00:49.875Z,1009.13
2018-05-09T07:01:55.425Z,1009.11
2018-05-09T07:03:00.963Z,1009.11
2018-05-09T07:04:06.510Z,1009.12
2018-05-09T07:05:12.054Z,1009.10
2018-05-09T07:06:17.653Z,1009.08
2018-05-09T07:07:23.152Z,1009.09
2018-05-09T07:08:28.695Z,1009.08
2018-05-09T07:09:34.236Z,1009.08
2018-05-09T07:10:39.775Z,1009.06
2018-05-09T07:11:45.327Z,1009.07
2018-05-09T07:12:50.865Z,1009.08
2018-05-09T07:13:56.415Z,1009.11
2018-05-09T07:15:01.952Z,1009.05
2018-05-09T07:16:07.502Z,1009.08
2018-05-09T07:17:13.049Z,1009.04
2018-05-09T07:18:18.594Z,1009.07
2018-05-09T07:19:24.138Z,1009.11
2018-05-09T07:20:29.686Z,1009.10
2018-05-09T07:21:35.228Z,1009.10
2018-05-09T07:22:40.770Z,1009.11
2018-05-09T07:23:46.314Z,1009.07
2018-05-09T07:24:51.857Z,1009.09
2018-05-09T07:25:57.407Z,1009.08
2018-05-09T07:27:02.952Z,1009.07
2018-05-09T07:28:08.498Z,1009.11
2018-05-09T07:29:14.045Z,1009.13
2018-05-09T07:30:19.582Z,1009.14
2018-05-09T07:31:25.137Z,1009.13
2018-05-09T07:32:30.677Z,1009.09
2018-05-09T07:33:36.221Z,1009.07
2018-05-09T07:34:41.765Z,1009.09
2018-05-09T07:35:47.318Z,1009.08
2018-05-09T07:36:52.859Z,1009.06
2018-05-09T07:37:58.398Z,1009.10
2018-05-09T07:39:03.943Z,1009.12
2018-05-09T07:40:09.495Z,1009.07
2018-05-09T07:41:15.035Z,1009.14
2018-05-09T07:42:20.582Z,1009.10
2018-05-09T07:43:26.137Z,1009.13
2018-05-09T07:44:31.682Z,1009.13
2018-05-09T07:45:37.218Z,1009.09
2018-05-09T07:46:42.761Z,1009.13
2018-05-09T07:47:48.346Z,1009.11
2018-05-09T07:48:53.854Z,1009.07
2018-05-09T07:49:59.404Z,1009.10
2018-05-09T07:51:04.945Z,1009.13
2018-05-09T07:52:10.491Z,1009.15
2018-05-09T07:53:16.039Z,1009.13
2018-05-09T07:54:21.584Z,1009.10
2018-05-09T07:55:27.136Z,1009.10
2018-05-09T07:56:32.676Z,1009.09
2018-05-09T07:57:38.225Z,1009.15
2018-05-09T07:58:43.763Z,1009.13
2018-05-09T07:59:49.316Z,1009.11
2018-05-09T08:00:54.863Z,1009.10
2018-05-09T08:02:00.406Z,1009.10
2018-05-09T08:03:05.960Z,1009.05
2018-05-09T08:04:11.496Z,1009.05
2018-05-09T08:05:17.050Z,1009.09
2018-05-09T08:06:22.587Z,1009.08
2018-05-09T08:07:28.143Z,1009.08
2018-05-09T08:08:33.682Z,1009.06
2018-05-09T08:09:39.230Z,1009.08
2018-05-09T08:10:44.776Z,1009.08
2018-05-09T08:11:50.327Z,1009.11
2018-05-09T08:12:55.895Z,1009.13
2018-05-09T08:14:01.420Z,1009.11
2018-05-09T08:15:06.961Z,1009.18
2018-05-09T08:16:12.506Z,1009.16
2018-05-09T08:17:18.054Z,1009.16
2018-05-09T08:18:23.603Z,1009.10
2018-05-09T08:19:29.156Z,1009.15
2018-05-09T08:20:34.699Z,1009.18
2018-05-09T08:21:40.240Z,1009.14
2018-05-09T08:22:45.787Z,1009.14
2018-05-09T08:23:51.395Z,1009.16
2018-05-09T08:24:56.880Z,1009.19
2018-05-09T08:26:02.433Z,1009.19
2018-05-09T08:27:07.985Z,1009.13
2018-05-09T08:28:13.523Z,1009.14
2018-05-09T08:29:19.068Z,1009.14
2018-05-09T08:30:24.619Z,1009.10
2018-05-09T08:31:30.168Z,1009.06
2018-05-09T08:32:35.716Z,1009.07
2018-05-09T08:33:41.258Z,1009.03
2018-05-09T08:34:46.806Z,1009.06
2018-05-09T08:35:52.357Z,1008.98
2018-05-09T08:36:57.897Z,1009.00
2018-05-09T08:38:03.460Z,1008.99
2018-05-09T08:39:08.990Z,1008.96
2018-05-09T08:40:14.539Z,1008.99
2018-05-09T08:41:20.084Z,1009.01
2018-05-09T08:42:25.638Z,1009.03
2018-05-09T08:43:31.230Z,1008.98
2018-05-09T08:44:36.732Z,1008.99
2018-05-09T08:45:42.276Z,1008.99
2018-05-09T08:46:47.825Z,1009.06
2018-05-09T08:47:53.372Z,1009.03
2018-05-09T08:48:58.919Z,1008.99
2018-05-09T08:50:04.462Z,1008.99
2018-05-09T08:51:10.008Z,1008.98
2018-05-09T08:52:15.556Z,1009.01
2018-05-09T08:53:21.101Z,1008.96
2018-05-09T08:54:26.671Z,1008.95
2018-05-09T08:55:32.260Z,1008.93
2018-05-09T08:56:37.743Z,1008.93
2018-05-09T08:57:43.303Z,1008.94
2018-05-09T08:58:48.844Z,1008.96
2018-05-09T08:59:54.384Z,1008.94
2018-05-09T09:00:59.929Z,1008.92
2018-05-09T09:02:05.489Z,1008.91
2018-05-09T09:03:11.026Z,1008.88
2018-05-09T09:04:16.886Z,1008.92
2018-05-09T09:05:22.127Z,1008.89
2018-05-09T09:06:27.744Z,1008.84
2018-05-09T09:07:33.221Z,1008.81
2018-05-09T09:08:38.766Z,1008.85
2018-05-09T09:09:44.316Z,1008.84
2018-05-09T09:10:49.929Z,1008.81
2018-05-09T09:11:55.405Z,1008.83
2018-05-09T09:13:00.956Z,1008.80
2018-05-09T09:14:06.508Z,1008.83
2018-05-09T09:15:12.051Z,1008.80
2018-05-09T09:16:17.598Z,1008.76
2018-05-09T09:17:23.145Z,1008.81
2018-05-09T09:18:28.795Z,1008.80
2018-05-09T09:19:34.377Z,1008.82
2018-05-09T09:20:39.801Z,1008.82
2018-05-09T09:21:45.335Z,1008.81
2018-05-09T09:22:50.887Z,1008.78
2018-05-09T09:23:56.442Z,1008.77
2018-05-09T09:25:01.983Z,1008.80
2018-05-09T09:26:07.525Z,1008.84
2018-05-09T09:27:13.072Z,1008.81
2018-05-09T09:28:18.622Z,1008.81
2018-05-09T09:29:24.170Z,1008.83
2018-05-09T09:30:29.718Z,1008.76
2018-05-09T09:31:35.263Z,1008.81
2018-05-09T09:32:40.819Z,1008.82
2018-05-09T09:33:46.362Z,1008.79
2018-05-09T09:34:51.915Z,1008.81
2018-05-09T09:35:57.459Z,1008.78
2018-05-09T09:37:03.006Z,1008.81
2018-05-09T09:38:08.553Z,1008.80
2018-05-09T09:39:14.099Z,1008.80
2018-05-09T09:40:19.647Z,1008.73
2018-05-09T09:41:25.275Z,1008.70
2018-05-09T09:42:30.754Z,1008.71
2018-05-09T09:43:36.299Z,1008.67
2018-05-09T09:44:41.840Z,1008.65
2018-05-09T09:45:47.394Z,1008.65
2018-05-09T09:46:52.938Z,1008.62
2018-05-09T09:47:58.486Z,1008.65
2018-05-09T09:49:04.038Z,1008.66
2018-05-09T09:50:09.584Z,1008.67
2018-05-09T09:51:15.134Z,1008.69
2018-05-09T09:52:20.688Z,1008.59
2018-05-09T09:53:26.230Z,1008.64
2018-05-09T09:54:31.774Z,1008.61
2018-05-09T09:55:37.321Z,1008.59
2018-05-09T09:56:42.869Z,1008.63
2018-05-09T09:57:48.421Z,1008.58
2018-05-09T09:58:53.965Z,1008.57
2018-05-09T09:59:59.528Z,1008.59
2018-05-09T10:01:05.070Z,1008.55
2018-05-09T10:02:10.611Z,1008.51
2018-05-09T10:03:16.157Z,1008.55
2018-05-09T10:04:21.707Z,1008.52
2018-05-09T10:05:27.255Z,1008.50
2018-05-09T10:06:32.801Z,1008.49
2018-05-09T10:07:38.352Z,1008.50
2018-05-09T10:08:43.902Z,1008.49
2018-05-09T10:09:49.444Z,1008.51
2018-05-09T10:10:55.008Z,1008.52
2018-05-09T10:12:00.542Z,1008.54
2018-05-09T10:13:06.090Z,1008.55
2018-05-09T10:14:11.639Z,1008.54
2018-05-09T10:15:17.191Z,1008.55
2018-05-09T10:16:22.820Z,1008.49
2018-05-09T10:17:28.284Z,1008.47
2018-05-09T10:18:33.833Z,1008.46
2018-05-09T10:19:39.376Z,1008.46
2018-05-09T10:20:44.930Z,1008.44
2018-05-09T10:21:50.480Z,1008.45
2018-05-09T10:22:56.022Z,1008.40
2018-05-09T10:24:01.579Z,1008.35
2018-05-09T10:25:07.120Z,1008.38
2018-05-09T10:26:12.668Z,1008.40
2018-05-09T10:27:18.220Z,1008.36
2018-05-09T10:28:23.768Z,1008.41
2018-05-09T10:29:29.314Z,1008.33
2018-05-09T10:30:34.861Z,1008.36
2018-05-09T10:31:40.414Z,1008.36
2018-05-09T10:32:45.961Z,1008.35
2018-05-09T10:33:51.506Z,1008.43
2018-05-09T10:34:57.053Z,1008.34
2018-05-09T10:36:02.600Z,1008.32
2018-05-09T10:37:08.150Z,1008.32
2018-05-09T10:38:13.707Z,1008.33
2018-05-09T10:39:19.252Z,1008.32
2018-05-09T10:40:24.795Z,1008.36
2018-05-09T10:41:30.344Z,1008.30
2018-05-09T10:42:35.893Z,1008.32
2018-05-09T10:43:41.441Z,1008.27
2018-05-09T10:44:46.990Z,1008.31
2018-05-09T10:45:52.550Z,1008.28
2018-05-09T10:46:58.086Z,1008.27
2018-05-09T10:48:03.634Z,1008.27
2018-05-09T10:49:09.182Z,1008.23
2018-05-09T10:50:14.730Z,1008.20
2018-05-09T10:51:20.283Z,1008.22
2018-05-09T10:52:25.825Z,1008.19
2018-05-09T10:53:31.377Z,1008.21
2018-05-09T10:54:36.929Z,1008.23
2018-05-09T10:55:42.477Z,1008.22
2018-05-09T10:56:48.023Z,1008.22
2018-05-09T10:57:53.573Z,1008.23
2018-05-09T10:58:59.117Z,1008.21
2018-05-09T11:00:04.681Z,1008.21
2018-05-09T11:01:10.220Z,1008.15
2018-05-09T11:02:15.826Z,1008.12
2018-05-09T11:03:21.314Z,1008.09
2018-05-09T11:04:26.864Z,1008.04
2018-05-09T11:05:32.413Z,1008.08
2018-05-09T11:06:37.962Z,1008.10
2018-05-09T11:07:43.506Z,1008.07
2018-05-09T11:08:49.060Z,1008.14
2018-05-09T11:09:54.605Z,1008.18
2018-05-09T11:11:00.157Z,1008.07
2018-05-09T11:12:05.700Z,1008.14
2018-05-09T11:13:11.251Z,1008.09
2018-05-09T11:14:16.800Z,1008.05
2018-05-09T11:15:22.350Z,1008.11
2018-05-09T11:16:27.902Z,1008.08
2018-05-09T11:17:33.539Z,1008.06
2018-05-09T11:18:39.002Z,1008.06
2018-05-09T11:19:44.548Z,1008.08
2018-05-09T11:20:50.104Z,1008.08
2018-05-09T11:21:55.636Z,1008.05
2018-05-09T11:23:01.193Z,1008.10
2018-05-09T11:24:06.734Z,1008.03
2018-05-09T11:25:12.284Z,1008.04
2018-05-09T11:26:17.836Z,1007.98
2018-05-09T11:27:23.379Z,1008.01
2018-05-09T11:28:28.935Z,1008.01
2018-05-09T11:29:34.477Z,1008.02
2018-05-09T11:30:40.027Z,1008.02
2018-05-09T11:31:45.581Z,1007.99
2018-05-09T11:32:51.133Z,1007.93
2018-05-09T11:33:56.678Z,1007.93
2018-05-09T11:35:02.224Z,1007.89
2018-05-09T11:36:07.768Z,1007.85
2018-05-09T11:37:13.319Z,1007.87
2018-05-09T11:38:18.865Z,1007.89
2018-05-09T11:39:24.415Z,1007.91
2018-05-09T11:40:29.970Z,1007.93
2018-05-09T11:41:35.509Z,1007.89
2018-05-09T11:42:41.065Z,1007.91
2018-05-09T11:43:46.609Z,1007.93
2018-05-09T11:44:52.175Z,1007.94
2018-05-09T11:45:57.702Z,1007.87
2018-05-09T11:47:03.258Z,1007.83
2018-05-09T11:48:08.800Z,1007.81
2018-05-09T11:49:14.353Z,1007.86
2018-05-09T11:50:19.907Z,1007.87
2018-05-09T11:51:25.454Z,1007.78
2018-05-09T11:52:31.005Z,1007.75
2018-05-09T11:53:36.544Z,1007.73
2018-05-09T11:54:42.095Z,1007.78
2018-05-09T11:55:47.647Z,1007.69
2018-05-09T11:56:53.194Z,1007.74
2018-05-09T11:57:58.751Z,1007.66
2018-05-09T11:59:04.292Z,1007.70
2018-05-09T12:00:09.836Z,1007.66
2018-05-09T12:01:15.384Z,1007.67
2018-05-09T12:02:20.939Z,1007.68
2018-05-09T12:03:26.483Z,1007.65
2018-05-09T12:04:32.030Z,1007.63
2018-05-09T12:05:37.590Z,1007.67
2018-05-09T12:06:43.130Z,1007.66
2018-05-09T12:07:48.683Z,1007.63
2018-05-09T12:08:54.234Z,1007.57
2018-05-09T12:09:59.772Z,1007.59
2018-05-09T12:11:05.327Z,1007.56
2018-05-09T12:12:10.876Z,1007.63
2018-05-09T12:13:16.419Z,1007.55
2018-05-09T12:14:21.967Z,1007.61
2018-05-09T12:15:27.519Z,1007.59
2018-05-09T12:16:33.065Z,1007.60
2018-05-09T12:17:38.612Z,1007.55
2018-05-09T12:18:44.165Z,1007.56
2018-05-09T12:19:49.713Z,1007.50
2018-05-09T12:20:55.266Z,1007.50
2018-05-09T12:22:00.816Z,1007.52
2018-05-09T12:23:06.361Z,1007.53
2018-05-09T12:24:11.909Z,1007.44
2018-05-09T12:25:17.461Z,1007.52
2018-05-09T12:26:23.003Z,1007.43
2018-05-09T12:27:28.556Z,1007.40
2018-05-09T12:28:34.103Z,1007.38
2018-05-09T12:29:39.660Z,1007.37
2018-05-09T12:30:45.202Z,1007.41
2018-05-09T12:31:50.747Z,1007.38
2018-05-09T12:32:56.299Z,1007.41
2018-05-09T12:34:01.848Z,1007.40
2018-05-09T12:35:07.403Z,1007.37
2018-05-09T12:36:12.940Z,1007.37
2018-05-09T12:37:18.496Z,1007.38
2018-05-09T12:38:24.046Z,1007.37
2018-05-09T12:39:29.594Z,1007.35
2018-05-09T12:40:35.139Z,1007.29
2018-05-09T12:41:40.687Z,1007.33
2018-05-09T12:42:46.240Z,1007.30
2018-05-09T12:43:51.788Z,1007.31
2018-05-09T12:44:57.337Z,1007.31
2018-05-09T12:46:02.882Z,1007.31
2018-05-09T12:47:08.435Z,1007.30
2018-05-09T12:48:13.985Z,1007.27
2018-05-09T12:49:19.537Z,1007.28
2018-05-09T12:50:25.084Z,1007.27
2018-05-09T12:51:30.634Z,1007.25
2018-05-09T12:52:36.177Z,1007.31
2018-05-09T12:53:41.731Z,1007.21
2018-05-09T12:54:47.279Z,1007.24
2018-05-09T12:55:52.830Z,1007.19
2018-05-09T12:56:58.379Z,1007.17
2018-05-09T12:58:03.928Z,1007.18
2018-05-09T12:59:09.471Z,1007.10
2018-05-09T13:00:15.025Z,1007.06
2018-05-09T13:01:20.589Z,1007.12
2018-05-09T13:02:26.121Z,1007.14
2018-05-09T13:03:31.674Z,1007.15
2018-05-09T13:04:37.223Z,1007.12
2018-05-09T13:05:42.772Z,1007.13
2018-05-09T13:06:48.321Z,1007.17
2018-05-09T13:07:53.872Z,1007.18
2018-05-09T13:08:59.419Z,1007.14
2018-05-09T13:10:04.965Z,1007.12
2018-05-09T13:11:10.515Z,1007.11
2018-05-09T13:12:16.089Z,1007.05
2018-05-09T13:13:21.708Z,1007.04
2018-05-09T13:14:27.169Z,1006.99
2018-05-09T13:15:32.715Z,1007.00
2018-05-09T13:16:38.258Z,1006.98